createdAt,value
2023-02-11T00:01:32.175Z,66.58
2023-02-11T00:04:02.366Z,66.49
2023-02-11T00:06:32.221Z,66.48
2023-02-11T00:09:00.268Z,66.38
2023-02-11T00:15:40.052Z,66.71
2023-02-11T00:18:08.010Z,66.54
2023-02-11T00:21:33.703Z,66.55
2023-02-11T00:24:03.066Z,66.44
2023-02-11T00:26:46.408Z,66.50
2023-02-11T00:29:14.365Z,66.63
2023-02-11T00:31:42.423Z,66.31
2023-02-11T00:34:10.408Z,66.38
2023-02-11T00:36:41.973Z,66.69
2023-02-11T00:39:11.328Z,66.70
2023-02-11T00:41:39.443Z,66.83
2023-02-11T00:44:07.395Z,66.48
2023-02-11T00:46:35.475Z,66.56
2023-02-11T00:49:03.448Z,66.31
2023-02-11T00:51:31.970Z,66.40
2023-02-11T00:53:59.992Z,66.15
2023-02-11T00:56:58.918Z,66.53
2023-02-11T00:59:27.033Z,66.33
2023-02-11T01:01:55.082Z,66.57
2023-02-11T01:05:28.132Z,66.13
2023-02-11T01:07:56.364Z,66.51
2023-02-11T01:10:24.952Z,66.47
2023-02-11T01:12:55.389Z,66.17
2023-02-11T01:15:24.661Z,66.40
2023-02-11T01:17:52.883Z,66.24
2023-02-11T01:20:23.326Z,66.44
2023-02-11T01:22:51.384Z,66.08
2023-02-11T01:25:19.593Z,66.05
2023-02-11T01:27:47.609Z,66.45
2023-02-11T01:30:20.208Z,66.57
2023-02-11T01:32:48.576Z,66.41
2023-02-11T01:35:16.599Z,66.22
2023-02-11T01:37:44.783Z,66.25
2023-02-11T01:40:15.150Z,66.26
2023-02-11T01:42:43.193Z,66.49
2023-02-11T01:45:55.503Z,66.43
2023-02-11T01:48:26.419Z,66.42
2023-02-11T01:50:55.683Z,66.36
2023-02-11T01:53:40.962Z,66.06
2023-02-11T01:56:26.481Z,66.13
2023-02-11T01:58:56.548Z,66.26
2023-02-11T02:01:25.397Z,66.33
2023-02-11T02:03:55.840Z,65.95
2023-02-11T02:06:26.605Z,66.08
2023-02-11T02:08:56.798Z,66.11
2023-02-11T02:11:25.431Z,65.63
2023-02-11T02:13:53.421Z,65.65
2023-02-11T02:16:23.039Z,65.73
2023-02-11T02:18:57.456Z,66.05
2023-02-11T02:21:42.623Z,65.78
2023-02-11T02:24:28.834Z,66.20
2023-02-11T02:27:25.972Z,66.17
2023-02-11T02:30:34.893Z,65.90
2023-02-11T02:33:21.673Z,66.34
2023-02-11T02:35:57.794Z,65.84
2023-02-11T02:38:28.040Z,65.97
2023-02-11T02:40:59.747Z,66.08
2023-02-11T02:43:27.775Z,65.86
2023-02-11T02:45:55.908Z,66.09
2023-02-11T02:48:30.034Z,66.00
2023-02-11T02:51:20.735Z,66.01
2023-02-11T02:53:55.999Z,66.09
2023-02-11T02:56:26.761Z,66.06
2023-02-11T02:59:05.963Z,66.14
2023-02-11T03:01:37.617Z,66.32
2023-02-11T03:04:13.342Z,66.01
2023-02-11T03:06:46.627Z,66.15
2023-02-11T03:09:16.642Z,65.93
2023-02-11T03:11:45.095Z,66.21
2023-02-11T03:14:14.279Z,65.94
2023-02-11T03:16:44.414Z,65.92
2023-02-11T03:19:18.691Z,65.78
2023-02-11T03:21:46.743Z,65.84
2023-02-11T03:24:17.641Z,65.96
2023-02-11T03:26:49.710Z,66.13
2023-02-11T03:29:19.431Z,66.16
2023-02-11T03:31:52.175Z,66.08
2023-02-11T03:34:24.380Z,66.25
2023-02-11T03:36:54.636Z,66.19
2023-02-11T03:39:24.715Z,66.13
2023-02-11T03:41:52.721Z,66.21
2023-02-11T03:44:23.105Z,66.03
2023-02-11T03:46:52.333Z,65.99
2023-02-11T03:49:23.188Z,65.71
2023-02-11T03:51:51.930Z,65.92
2023-02-11T03:54:20.891Z,66.04
2023-02-11T03:56:50.988Z,66.17
2023-02-11T03:59:19.048Z,66.00
2023-02-11T04:01:47.013Z,65.80
2023-02-11T04:04:14.977Z,65.71
2023-02-11T04:06:44.650Z,65.66
2023-02-11T04:09:12.798Z,65.66
2023-02-11T04:11:40.783Z,66.10
2023-02-11T04:14:11.406Z,65.90
2023-02-11T04:16:39.414Z,65.93
2023-02-11T04:19:07.567Z,65.99
2023-02-11T04:21:35.556Z,65.72
2023-02-11T04:24:05.328Z,65.84
2023-02-11T04:26:33.254Z,65.55
2023-02-11T04:29:01.178Z,65.96
2023-02-11T04:31:29.285Z,65.96
2023-02-11T04:33:57.882Z,65.80
2023-02-11T04:36:25.800Z,66.09
2023-02-11T04:38:55.254Z,65.55
2023-02-11T04:41:24.602Z,65.57
2023-02-11T04:43:52.734Z,65.96
2023-02-11T04:46:20.836Z,65.90
2023-02-11T04:48:48.843Z,66.01
2023-02-11T04:51:16.892Z,66.02
2023-02-11T04:53:44.875Z,66.01
2023-02-11T04:56:12.910Z,65.67
2023-02-11T04:58:42.240Z,65.92
2023-02-11T05:01:10.404Z,65.87
2023-02-11T05:03:38.576Z,66.01
2023-02-11T05:06:07.077Z,66.06
2023-02-11T05:08:35.129Z,65.92
2023-02-11T05:11:03.096Z,65.90
2023-02-11T05:13:31.128Z,65.71
2023-02-11T05:16:00.411Z,65.81
2023-02-11T05:18:28.360Z,66.40
2023-02-11T05:20:59.129Z,65.94
2023-02-11T05:23:27.090Z,66.16
2023-02-11T05:25:55.022Z,66.01
2023-02-11T05:28:23.115Z,66.49
2023-02-11T05:30:51.225Z,65.97
2023-02-11T05:33:20.521Z,66.37
2023-02-11T05:35:49.290Z,66.39
2023-02-11T05:38:18.721Z,66.06
2023-02-11T05:40:46.628Z,66.45
2023-02-11T05:43:14.532Z,66.69
2023-02-11T05:45:42.478Z,66.25
2023-02-11T05:48:10.428Z,66.34
2023-02-11T05:50:39.860Z,66.29
2023-02-11T05:53:07.870Z,65.99
2023-02-11T05:55:36.980Z,66.07
2023-02-11T05:58:05.064Z,66.00
2023-02-11T06:00:33.745Z,66.24
2023-02-11T06:03:04.214Z,66.11
2023-02-11T06:05:32.303Z,66.09
2023-02-11T06:08:01.672Z,65.97
2023-02-11T06:10:29.643Z,66.17
2023-02-11T06:13:02.524Z,66.02
2023-02-11T06:15:30.535Z,66.15
2023-02-11T06:17:58.498Z,66.36
2023-02-11T06:20:26.596Z,65.98
2023-02-11T06:22:54.526Z,66.03
2023-02-11T06:25:23.875Z,66.20
2023-02-11T06:27:51.935Z,65.99
2023-02-11T06:30:20.063Z,66.22
2023-02-11T06:32:48.105Z,65.95
2023-02-11T06:35:16.176Z,66.52
2023-02-11T06:37:44.210Z,66.67
2023-02-11T06:40:12.422Z,66.58
2023-02-11T06:42:41.848Z,66.45
2023-02-11T06:45:11.088Z,66.53
2023-02-11T06:47:39.196Z,66.24
2023-02-11T06:50:08.015Z,66.11
2023-02-11T06:52:37.258Z,66.34
2023-02-11T06:55:07.615Z,66.27
2023-02-11T06:57:35.676Z,66.25
2023-02-11T07:00:05.875Z,65.97
2023-02-11T07:02:34.129Z,66.36
2023-02-11T07:05:02.089Z,66.08
2023-02-11T07:07:32.403Z,65.87
2023-02-11T07:10:03.171Z,66.04
2023-02-11T07:12:31.201Z,66.23
2023-02-11T07:14:59.147Z,66.06
2023-02-11T07:17:28.590Z,65.97
2023-02-11T07:19:56.605Z,66.36
2023-02-11T07:22:24.583Z,66.28
2023-02-11T07:24:52.658Z,66.29
2023-02-11T07:27:20.620Z,66.16
2023-02-11T07:29:56.095Z,66.38
2023-02-11T07:32:24.274Z,66.36
2023-02-11T07:34:53.968Z,66.54
2023-02-11T07:37:22.058Z,66.47
2023-02-11T07:39:50.090Z,66.15
2023-02-11T07:42:18.125Z,65.86
2023-02-11T07:44:50.224Z,66.07
2023-02-11T07:47:18.489Z,66.06
2023-02-11T07:49:47.679Z,66.47
2023-02-11T07:52:17.057Z,66.47
2023-02-11T07:54:47.096Z,66.39
2023-02-11T07:57:15.182Z,66.55
2023-02-11T07:59:43.083Z,66.26
2023-02-11T08:02:11.663Z,66.43
2023-02-11T08:04:39.866Z,66.47
2023-02-11T08:07:08.632Z,66.35
2023-02-11T08:09:38.011Z,66.44
2023-02-11T08:12:06.518Z,66.27
2023-02-11T08:14:34.453Z,66.16
2023-02-11T08:17:02.431Z,66.49
2023-02-11T08:19:31.599Z,66.42
2023-02-11T08:22:01.344Z,66.46
2023-02-11T08:24:33.490Z,66.72
2023-02-11T08:27:03.002Z,66.72
2023-02-11T08:29:34.042Z,66.79
2023-02-11T08:32:02.051Z,66.69
2023-02-11T08:34:32.720Z,66.40
2023-02-11T08:37:00.708Z,66.38
2023-02-11T08:39:28.628Z,66.78
2023-02-11T08:41:59.764Z,66.64
2023-02-11T08:44:29.631Z,66.50
2023-02-11T08:46:57.643Z,66.83
2023-02-11T08:49:25.840Z,66.70
2023-02-11T08:51:55.501Z,66.69
2023-02-11T08:54:23.630Z,66.67
2023-02-11T08:56:52.868Z,66.67
2023-02-11T08:59:20.988Z,66.43
2023-02-11T09:01:50.448Z,66.88
2023-02-11T09:04:18.575Z,66.85
2023-02-11T09:06:46.546Z,66.80
2023-02-11T09:09:15.545Z,66.98
2023-02-11T09:11:44.072Z,66.90
2023-02-11T09:14:17.064Z,66.97
2023-02-11T09:16:45.553Z,66.77
2023-02-11T09:19:16.670Z,66.77
2023-02-11T09:21:44.810Z,66.80
2023-02-11T09:24:12.790Z,67.09
2023-02-11T09:26:45.114Z,67.04
2023-02-11T09:29:13.809Z,67.18
2023-02-11T09:31:42.019Z,66.86
2023-02-11T09:34:11.350Z,66.95
2023-02-11T09:36:41.048Z,66.73
2023-02-11T09:39:10.521Z,66.96
2023-02-11T09:42:07.310Z,66.88
2023-02-11T09:44:36.513Z,66.78
2023-02-11T09:47:05.731Z,66.73
2023-02-11T09:49:38.324Z,66.72
2023-02-11T09:52:09.680Z,66.78
2023-02-11T09:54:40.285Z,66.67
2023-02-11T09:57:22.983Z,66.56
2023-02-11T09:59:55.909Z,66.67
2023-02-11T10:02:25.801Z,66.45
2023-02-11T10:05:16.311Z,66.51
2023-02-11T10:07:48.301Z,66.63
2023-02-11T10:10:21.356Z,66.44
2023-02-11T10:12:58.336Z,66.26
2023-02-11T10:15:31.875Z,66.54
2023-02-11T10:18:06.632Z,66.56
2023-02-11T10:20:35.872Z,66.46
2023-02-11T10:23:11.010Z,66.13
2023-02-11T10:25:39.853Z,66.30
2023-02-11T10:28:12.996Z,66.08
2023-02-11T10:30:46.170Z,66.14
2023-02-11T10:33:16.827Z,66.18
2023-02-11T10:35:45.724Z,66.25
2023-02-11T10:38:15.074Z,66.28
2023-02-11T10:40:45.819Z,66.01
2023-02-11T10:43:17.744Z,65.85
2023-02-11T10:45:46.544Z,65.94
2023-02-11T10:48:43.614Z,65.79
2023-02-11T10:51:18.601Z,65.79
2023-02-11T10:53:48.534Z,65.88
2023-02-11T10:56:23.311Z,65.88
2023-02-11T10:58:57.618Z,65.78
2023-02-11T11:01:25.800Z,65.82
2023-02-11T11:03:55.269Z,65.78
2023-02-11T11:06:30.410Z,65.73
2023-02-11T11:08:59.809Z,65.67
2023-02-11T11:11:27.956Z,65.55
2023-02-11T11:14:01.319Z,65.23
2023-02-11T11:16:31.732Z,65.18
2023-02-11T11:19:22.595Z,65.14
2023-02-11T11:21:51.185Z,64.81
2023-02-11T11:24:22.492Z,65.36
2023-02-11T11:26:51.771Z,65.15
2023-02-11T11:29:20.357Z,64.84
2023-02-11T11:31:50.578Z,64.80
2023-02-11T11:34:24.353Z,64.93
2023-02-11T11:36:52.305Z,64.79
2023-02-11T11:39:24.265Z,64.82
2023-02-11T11:41:54.031Z,64.61
2023-02-11T11:44:30.246Z,64.33
2023-02-11T11:47:20.752Z,64.51
2023-02-11T11:49:52.231Z,64.49
2023-02-11T11:52:21.965Z,64.36
2023-02-11T11:54:55.018Z,63.72
2023-02-11T11:57:25.297Z,63.79
2023-02-11T11:59:53.385Z,63.99
2023-02-11T12:02:37.029Z,63.82
2023-02-11T12:05:05.954Z,63.93
2023-02-11T12:07:42.960Z,63.43
2023-02-11T12:10:25.669Z,63.53
2023-02-11T12:12:56.867Z,63.62
2023-02-11T12:15:32.685Z,63.47
2023-02-11T12:18:19.417Z,62.92
2023-02-11T12:20:59.953Z,63.30
2023-02-11T12:23:49.592Z,63.38
2023-02-11T12:26:20.195Z,63.46
2023-02-11T12:29:00.092Z,63.32
2023-02-11T12:32:03.922Z,62.95
2023-02-11T12:34:51.776Z,63.04
2023-02-11T12:37:26.033Z,62.54
2023-02-11T12:39:58.064Z,62.81
2023-02-11T12:42:58.998Z,62.24
2023-02-11T12:45:45.365Z,62.50
2023-02-11T12:48:34.755Z,62.41
2023-02-11T12:51:07.277Z,61.57
2023-02-11T12:53:45.885Z,61.61
2023-02-11T12:56:16.274Z,61.55
2023-02-11T12:58:45.978Z,61.64
2023-02-11T13:01:18.101Z,61.61
2023-02-11T13:03:47.302Z,61.59
2023-02-11T13:06:16.234Z,61.58
2023-02-11T13:08:46.071Z,61.46
2023-02-11T13:11:16.639Z,61.33
2023-02-11T13:13:51.287Z,61.24
2023-02-11T13:16:23.990Z,61.31
2023-02-11T13:18:53.660Z,61.36
2023-02-11T13:21:42.455Z,60.10
2023-02-11T13:24:16.988Z,60.48
2023-02-11T13:26:48.491Z,60.25
2023-02-11T13:29:23.196Z,60.26
2023-02-11T13:32:05.160Z,60.04
2023-02-11T13:34:57.764Z,59.82
2023-02-11T13:37:27.126Z,59.64
2023-02-11T13:40:21.891Z,59.41
2023-02-11T13:42:51.635Z,58.13
2023-02-11T13:45:30.015Z,57.69
2023-02-11T13:47:58.613Z,57.26
2023-02-11T13:50:26.840Z,57.54
2023-02-11T13:53:07.370Z,55.59
2023-02-11T13:55:35.432Z,55.38
2023-02-11T13:58:37.114Z,53.94
2023-02-11T14:01:06.871Z,54.15
2023-02-11T14:03:56.910Z,54.63
2023-02-11T14:06:46.343Z,55.05
2023-02-11T14:09:41.987Z,54.76
2023-02-11T14:12:32.693Z,54.24
2023-02-11T14:15:04.251Z,53.24
2023-02-11T14:17:39.984Z,53.56
2023-02-11T14:20:48.344Z,53.17
2023-02-11T14:23:27.638Z,52.82
2023-02-11T14:26:01.342Z,52.23
2023-02-11T14:28:32.726Z,51.44
2023-02-11T14:31:03.790Z,51.20
2023-02-11T14:34:00.186Z,51.58
2023-02-11T14:36:56.584Z,50.84
2023-02-11T14:39:31.431Z,51.69
2023-02-11T14:41:59.467Z,51.13
2023-02-11T14:44:29.509Z,51.14
2023-02-11T14:46:58.086Z,51.15
2023-02-11T14:49:32.248Z,51.35
2023-02-11T14:52:05.868Z,51.66
2023-02-11T14:54:33.911Z,51.94
2023-02-11T14:57:12.040Z,52.01
2023-02-11T14:59:40.554Z,52.15
2023-02-11T15:02:22.614Z,52.07
2023-02-11T15:04:52.036Z,52.25
2023-02-11T15:07:20.012Z,52.48
2023-02-11T15:09:49.183Z,52.51
2023-02-11T15:12:18.682Z,52.41
2023-02-11T15:14:48.058Z,52.67
2023-02-11T15:17:17.279Z,52.63
2023-02-11T15:19:47.368Z,52.84
2023-02-11T15:22:20.503Z,52.68
2023-02-11T15:24:58.788Z,52.66
2023-02-11T15:27:26.891Z,52.92
2023-02-11T15:29:55.761Z,52.92
2023-02-11T15:32:25.476Z,52.78
2023-02-11T15:34:54.281Z,52.80
2023-02-11T15:37:25.418Z,52.71
2023-02-11T15:39:53.482Z,52.35
2023-02-11T15:42:24.695Z,52.36
2023-02-11T15:45:12.913Z,52.35
2023-02-11T15:47:45.770Z,52.47
2023-02-11T15:50:21.172Z,52.49
2023-02-11T15:52:50.667Z,52.24
2023-02-11T15:55:18.907Z,52.22
2023-02-11T15:57:47.019Z,52.21
2023-02-11T16:00:19.383Z,51.99
2023-02-11T16:02:49.043Z,51.96
2023-02-11T16:05:30.310Z,52.00
2023-02-11T16:08:00.400Z,52.17
2023-02-11T16:10:29.868Z,52.12
2023-02-11T16:13:18.589Z,52.09
2023-02-11T16:16:02.490Z,51.94
2023-02-11T16:18:40.100Z,51.92
2023-02-11T16:21:14.493Z,51.93
2023-02-11T16:23:43.899Z,52.14
2023-02-11T16:26:14.172Z,51.95
2023-02-11T16:28:42.505Z,51.85
2023-02-11T16:31:13.818Z,51.70
2023-02-11T16:33:41.777Z,51.95
2023-02-11T16:36:27.089Z,51.78
2023-02-11T16:38:56.647Z,51.65
2023-02-11T16:41:24.787Z,51.66
2023-02-11T16:43:52.819Z,51.54
2023-02-11T16:46:23.549Z,51.66
2023-02-11T16:48:51.711Z,51.11
2023-02-11T16:51:19.777Z,51.25
2023-02-11T16:53:47.857Z,51.23
2023-02-11T16:56:20.392Z,51.20
2023-02-11T16:58:48.462Z,51.18
2023-02-11T17:01:18.912Z,51.07
2023-02-11T17:03:54.085Z,50.57
2023-02-11T17:06:22.947Z,50.21
2023-02-11T17:08:53.876Z,50.49
2023-02-11T17:16:47.938Z,50.00
2023-02-11T17:19:16.931Z,49.89
2023-02-11T17:21:44.924Z,50.03
2023-02-11T17:24:14.255Z,49.96
2023-02-11T17:26:43.839Z,50.23
2023-02-11T17:29:16.932Z,50.20
2023-02-11T17:31:47.471Z,50.45
2023-02-11T17:34:15.513Z,50.62
2023-02-11T17:36:46.850Z,50.96
2023-02-11T17:39:16.059Z,51.17
2023-02-11T17:41:46.044Z,51.33
2023-02-11T17:44:16.615Z,51.46
2023-02-11T17:46:45.369Z,51.62
2023-02-11T17:49:23.278Z,52.04
2023-02-11T17:51:52.213Z,52.05
2023-02-11T17:54:20.404Z,52.15
2023-02-11T17:56:50.839Z,52.23
2023-02-11T17:59:26.062Z,52.42
2023-02-11T18:01:54.110Z,52.61
2023-02-11T18:04:29.587Z,52.96
2023-02-11T18:06:58.662Z,53.17
2023-02-11T18:09:26.654Z,53.03
2023-02-11T18:11:56.136Z,53.06
2023-02-11T18:14:35.953Z,53.50
2023-02-11T18:17:06.694Z,53.46
2023-02-11T18:19:36.588Z,53.29
2023-02-11T18:22:04.928Z,53.33
2023-02-11T18:24:32.879Z,53.11
2023-02-11T18:27:15.858Z,53.51
2023-02-11T18:29:45.074Z,53.48
2023-02-11T18:32:13.363Z,53.73
2023-02-11T18:34:41.823Z,53.81
2023-02-11T18:37:11.370Z,53.85
2023-02-11T18:39:40.411Z,53.93
2023-02-11T18:42:15.295Z,53.81
2023-02-11T18:44:52.462Z,53.96
2023-02-11T18:47:20.938Z,53.69
2023-02-11T18:49:51.030Z,54.21
2023-02-11T18:52:19.057Z,54.29
2023-02-11T18:54:49.437Z,54.16
2023-02-11T18:57:26.418Z,54.19
2023-02-11T18:59:54.681Z,54.37
2023-02-11T19:02:22.818Z,54.35
2023-02-11T19:04:50.801Z,54.37
2023-02-11T19:07:20.238Z,54.35
2023-02-11T19:09:49.059Z,54.57
2023-02-11T19:12:20.771Z,54.53
2023-02-11T19:14:54.425Z,54.35
2023-02-11T19:17:24.887Z,54.36
2023-02-11T19:19:52.923Z,54.37
2023-02-11T19:22:20.883Z,54.27
2023-02-11T19:24:49.085Z,54.33
2023-02-11T19:27:18.520Z,54.38
2023-02-11T19:29:50.087Z,53.86
2023-02-11T19:32:18.471Z,54.07
2023-02-11T19:34:46.405Z,54.14
2023-02-11T19:37:17.280Z,54.33
2023-02-11T19:39:45.313Z,54.06
2023-02-11T19:42:15.475Z,53.92
2023-02-11T19:44:47.215Z,53.95
2023-02-11T19:47:27.808Z,53.84
2023-02-11T19:49:56.090Z,53.94
2023-02-11T19:52:24.341Z,54.30
2023-02-11T19:54:54.932Z,54.10
2023-02-11T19:57:22.942Z,54.00
2023-02-11T19:59:55.020Z,54.42
2023-02-11T20:02:24.793Z,54.00
2023-02-11T20:04:53.021Z,54.04
2023-02-11T20:07:23.443Z,54.30
2023-02-11T20:09:53.643Z,54.20
2023-02-11T20:12:21.658Z,54.39
2023-02-11T20:14:49.628Z,53.91
2023-02-11T20:17:19.442Z,54.26
2023-02-11T20:19:47.434Z,54.14
2023-02-11T20:22:15.357Z,54.60
2023-02-11T20:24:43.367Z,54.59
2023-02-11T20:27:11.559Z,54.15
2023-02-11T20:29:39.831Z,54.42
2023-02-11T20:32:08.171Z,54.67
2023-02-11T20:34:38.815Z,54.42
2023-02-11T20:37:08.579Z,54.62
2023-02-11T20:39:37.350Z,54.29
2023-02-11T20:42:16.848Z,54.69
2023-02-11T20:44:52.529Z,54.68
2023-02-11T20:47:22.720Z,54.46
2023-02-11T20:49:56.754Z,54.57
2023-02-11T20:52:37.050Z,54.64
2023-02-11T20:55:09.325Z,54.98
2023-02-11T20:57:38.133Z,54.90
2023-02-11T21:00:07.075Z,54.84
2023-02-11T21:02:35.189Z,55.26
2023-02-11T21:05:06.754Z,55.27
2023-02-11T21:07:50.466Z,54.82
2023-02-11T21:10:21.738Z,55.04
2023-02-11T21:12:50.060Z,55.29
2023-02-11T21:15:18.231Z,55.17
2023-02-11T21:17:46.716Z,55.49
2023-02-11T21:20:16.164Z,55.70
2023-02-11T21:22:46.448Z,55.56
2023-02-11T21:25:14.662Z,55.56
2023-02-11T21:27:42.615Z,55.42
2023-02-11T21:30:13.847Z,55.61
2023-02-11T21:32:41.859Z,55.89
2023-02-11T21:35:10.221Z,55.64
2023-02-11T21:37:39.757Z,55.82
2023-02-11T21:40:09.677Z,55.72
2023-02-11T21:42:40.247Z,55.92
2023-02-11T21:45:09.244Z,55.68
2023-02-11T21:47:37.231Z,55.72
2023-02-11T21:50:08.163Z,55.71
2023-02-11T21:52:38.999Z,55.67
2023-02-11T21:55:10.028Z,55.61
2023-02-11T21:57:46.688Z,55.48
2023-02-11T22:00:16.144Z,55.29
2023-02-11T22:02:49.826Z,55.50
2023-02-11T22:05:18.420Z,55.44
2023-02-11T22:07:47.840Z,55.83
2023-02-11T22:10:19.290Z,55.67
2023-02-11T22:12:47.445Z,55.43
2023-02-11T22:15:15.732Z,55.63
2023-02-11T22:17:44.064Z,55.85
2023-02-11T22:20:12.816Z,55.59
2023-02-11T22:22:50.749Z,55.61
2023-02-11T22:25:22.223Z,55.76
2023-02-11T22:27:50.258Z,55.57
2023-02-11T22:30:19.546Z,55.79
2023-02-11T22:32:47.481Z,55.46
2023-02-11T22:35:15.833Z,55.58
2023-02-11T22:37:49.620Z,55.84
2023-02-11T22:40:17.878Z,55.46
2023-02-11T22:42:47.349Z,55.66
2023-02-11T22:45:17.945Z,55.86
2023-02-11T22:47:46.589Z,55.92
2023-02-11T22:50:14.765Z,56.01
2023-02-11T22:52:43.108Z,55.61
2023-02-11T22:55:11.095Z,55.55
2023-02-11T22:57:41.988Z,55.95
2023-02-11T23:00:15.650Z,55.92
2023-02-11T23:02:51.137Z,55.83
2023-02-11T23:05:21.179Z,55.75
2023-02-11T23:07:51.803Z,55.62
2023-02-11T23:10:23.807Z,55.77
2023-02-11T23:12:52.723Z,55.72
2023-02-11T23:15:22.053Z,55.51
2023-02-11T23:17:52.131Z,55.60
2023-02-11T23:20:23.311Z,55.47
2023-02-11T23:22:51.370Z,55.49
2023-02-11T23:25:19.749Z,55.56
2023-02-11T23:27:49.836Z,55.68
2023-02-11T23:30:25.028Z,55.44
2023-02-11T23:32:55.246Z,55.38
2023-02-11T23:35:26.781Z,55.78
2023-02-11T23:37:55.279Z,55.70
2023-02-11T23:40:23.612Z,55.56
2023-02-11T23:42:51.588Z,55.45
2023-02-11T23:45:19.756Z,55.49
2023-02-11T23:47:49.120Z,55.39
2023-02-11T23:50:17.205Z,55.64
2023-02-11T23:52:45.232Z,55.58
2023-02-11T23:55:14.208Z,55.82
2023-02-11T23:57:42.158Z,55.74
